Time;durP1;ratioP1;P1;durP2;ratioP2;P2;SDS_P1;SDS_P2;PMS_P1;PMS_P2;Temp;Humidity;BMP_temperature;BMP_pressure;BME280_temperature;BME280_humidity;BME280_pressure;Samples;Min_cycle;Max_cycle;Signal;HPM_P1;HPM_P2
2022/10/15 00:01:46;;;;;;;12.50;7.85;;;;;;;14.79;70.41;100686.06;5085210;28;20070;-64
2022/10/15 00:04:14;;;;;;;12.48;8.30;;;;;;;14.79;70.08;100687.97;5084679;28;20060;-64
2022/10/15 00:06:42;;;;;;;15.98;8.02;;;;;;;14.77;70.22;100688.22;5081311;28;20063;-64
2022/10/15 00:09:09;;;;;;;13.88;8.95;;;;;;;14.77;70.24;100690.94;5087071;28;20056;-64
2022/10/15 00:11:38;;;;;;;12.45;8.13;;;;;;;14.76;70.19;100689.28;5086639;28;20186;-64
2022/10/15 00:14:06;;;;;;;14.25;8.77;;;;;;;14.76;70.36;100688.47;5076482;28;20136;-64
2022/10/15 00:16:35;;;;;;;15.73;8.18;;;;;;;14.75;70.31;100690.34;5084857;28;20090;-64
2022/10/15 00:19:03;;;;;;;12.13;8.10;;;;;;;14.75;70.37;100687.66;5080382;28;20041;-64
2022/10/15 00:21:31;;;;;;;13.05;8.30;;;;;;;14.75;70.38;100692.25;5081589;28;20045;-64
2022/10/15 00:23:59;;;;;;;11.82;8.23;;;;;;;14.74;70.37;100688.72;5085612;28;20055;-65
2022/10/15 00:26:28;;;;;;;13.43;8.18;;;;;;;14.73;70.25;100687.09;5083029;28;20493;-65
2022/10/15 00:28:59;;;;;;;11.82;8.15;;;;;;;14.73;70.26;100689.78;5084019;28;20059;-64
2022/10/15 00:31:28;;;;;;;13.45;9.40;;;;;;;14.73;70.21;100687.09;5081290;28;20045;-64
2022/10/15 00:33:59;;;;;;;13.43;8.25;;;;;;;14.72;70.11;100693.56;5078785;28;20044;-65
2022/10/15 00:36:29;;;;;;;11.02;7.80;;;;;;;14.72;70.20;100695.47;5083884;28;20056;-64
2022/10/15 00:38:57;;;;;;;11.70;8.30;;;;;;;14.72;70.23;100695.47;5083279;28;20052;-64
2022/10/15 00:41:28;;;;;;;11.48;7.95;;;;;;;14.71;69.93;100683.81;5082280;28;20036;-64
2022/10/15 00:43:57;;;;;;;13.05;8.25;;;;;;;14.70;70.25;100690.31;5085451;28;20116;-64
2022/10/15 00:46:28;;;;;;;13.07;7.75;;;;;;;14.67;69.94;100690.00;5081153;28;20048;-64
2022/10/15 00:49:02;;;;;;;11.57;7.13;;;;;;;14.70;70.01;100700.31;5082781;28;20520;-64
2022/10/15 00:51:39;;;;;;;13.13;7.68;;;;;;;14.68;70.06;100697.03;5085604;28;20048;-64
2022/10/15 00:54:08;;;;;;;9.38;6.47;;;;;;;14.68;70.06;100694.31;5084066;28;20059;-64
2022/10/15 00:56:39;;;;;;;11.82;7.50;;;;;;;14.67;70.13;100704.34;5079029;28;20048;-64
2022/10/15 00:59:08;;;;;;;9.13;7.03;;;;;;;14.65;70.28;100698.34;5082549;28;20583;-64
2022/10/15 01:01:36;;;;;;;9.43;7.53;;;;;;;14.66;70.12;100708.09;5081787;28;20061;-64
2022/10/15 01:04:07;;;;;;;12.75;7.53;;;;;;;14.65;70.29;100703.75;5084032;28;20143;-64
2022/10/15 01:06:35;;;;;;;8.68;6.88;;;;;;;14.64;70.19;100702.13;5078347;28;20040;-64
2022/10/15 01:09:04;;;;;;;7.97;6.55;;;;;;;14.63;70.21;100705.91;5082641;28;20049;-65
2022/10/15 01:11:40;;;;;;;10.15;6.90;;;;;;;14.62;70.41;100707.78;5084443;28;20051;-64
2022/10/15 01:14:22;;;;;;;9.40;6.68;;;;;;;14.61;70.02;100703.44;5084193;28;20230;-64
2022/10/15 01:16:55;;;;;;;8.93;6.75;;;;;;;14.61;70.16;100699.94;5072991;28;20508;-64
2022/10/15 01:19:47;;;;;;;11.25;6.90;;;;;;;14.61;70.24;100697.22;5082721;28;20051;-64
2022/10/15 01:22:24;;;;;;;8.13;6.30;;;;;;;14.61;70.38;100697.22;5084049;28;20040;-64
2022/10/15 01:25:10;;;;;;;8.27;6.00;;;;;;;14.60;70.39;100679.38;5072914;28;20049;-63
2022/10/15 01:27:42;;;;;;;8.70;6.28;;;;;;;14.60;70.33;100684.78;5083066;28;20406;-64
2022/10/15 01:30:19;;;;;;;8.05;5.65;;;;;;;14.59;70.26;100683.94;5081116;28;20052;-64
2022/10/15 01:32:55;;;;;;;7.85;5.95;;;;;;;14.58;69.93;100670.69;5080243;28;20049;-64
2022/10/15 01:35:34;;;;;;;11.15;6.63;;;;;;;14.59;70.06;100665.03;5080909;28;20397;-64
2022/10/15 01:38:09;;;;;;;7.78;5.40;;;;;;;14.59;70.01;100662.31;5079934;28;20158;-64
2022/10/15 01:40:46;;;;;;;8.05;5.90;;;;;;;14.52;70.03;100655.47;5083579;28;20379;-64
2022/10/15 01:43:17;;;;;;;9.00;5.85;;;;;;;14.59;69.98;100664.19;5075563;28;20045;-63
2022/10/15 01:45:52;;;;;;;8.38;5.82;;;;;;;14.59;69.98;100669.63;5079694;28;20053;-64
2022/10/15 01:48:22;;;;;;;7.63;5.65;;;;;;;14.57;69.99;100669.88;5081494;28;20044;-64
2022/10/15 01:50:54;;;;;;;7.40;5.13;;;;;;;14.49;69.95;100653.25;5079974;28;20048;-64
2022/10/15 01:53:26;;;;;;;7.97;5.50;;;;;;;14.58;70.04;100663.38;5083536;28;20047;-64
2022/10/15 01:55:56;;;;;;;10.95;5.90;;;;;;;14.58;70.37;100665.28;5079450;28;20040;-64
2022/10/15 01:58:26;;;;;;;7.15;5.60;;;;;;;14.58;70.38;100657.97;5081345;28;20067;-64
2022/10/15 02:00:57;;;;;;;7.55;5.72;;;;;;;14.58;70.16;100655.28;5075815;28;20056;-63
2022/10/15 02:03:25;;;;;;;12.98;5.95;;;;;;;14.58;70.07;100660.69;5082422;28;20041;-64
2022/10/15 02:06:02;;;;;;;8.55;5.40;;;;;;;14.57;70.24;100659.03;5083029;28;20056;-64
2022/10/15 02:08:39;;;;;;;7.38;5.47;;;;;;;14.57;69.84;100655.53;5081847;28;20059;-64
2022/10/15 02:11:11;;;;;;;8.23;5.43;;;;;;;14.58;70.19;100652.56;5077521;28;20060;-64
2022/10/15 02:13:50;;;;;;;6.57;5.03;;;;;;;14.57;69.93;100644.72;5082503;28;20253;-64
2022/10/15 02:16:23;;;;;;;6.05;4.60;;;;;;;14.58;70.21;100651.75;5083173;28;20056;-64
2022/10/15 02:19:00;;;;;;;6.50;4.63;;;;;;;14.58;70.00;100651.75;5074722;28;20051;-64
2022/10/15 02:21:33;;;;;;;5.68;4.82;;;;;;;14.58;69.81;100657.16;5082002;28;20054;-64
2022/10/15 02:24:08;;;;;;;6.63;5.38;;;;;;;14.51;70.04;100640.31;5084224;28;20044;-64
2022/10/15 02:26:38;;;;;;;8.10;5.20;;;;;;;14.55;70.02;100646.84;5076448;28;20048;-64
2022/10/15 02:29:11;;;;;;;8.57;5.35;;;;;;;14.56;69.98;100638.47;5080882;28;20668;-64
2022/10/15 02:31:45;;;;;;;7.93;4.90;;;;;;;14.56;69.77;100635.78;5083475;28;20052;-65
2022/10/15 02:34:17;;;;;;;6.75;5.50;;;;;;;14.56;70.02;100627.66;5073820;28;20048;-64
2022/10/15 02:36:46;;;;;;;7.80;4.50;;;;;;;14.55;70.25;100631.44;5081699;28;20056;-65
2022/10/15 02:39:19;;;;;;;9.32;4.88;;;;;;;14.57;70.26;100625.78;5072963;28;20057;-65
2022/10/15 02:41:48;;;;;;;6.57;4.82;;;;;;;14.56;70.23;100619.56;5080163;28;20052;-65
2022/10/15 02:44:16;;;;;;;8.05;5.30;;;;;;;14.56;70.18;100616.03;5081599;28;20499;-64
2022/10/15 02:46:45;;;;;;;7.72;4.80;;;;;;;14.55;70.24;100612.50;5082523;28;20053;-65
2022/10/15 02:49:13;;;;;;;7.70;5.30;;;;;;;14.56;70.24;100607.91;5081500;28;20375;-64
2022/10/15 02:51:41;;;;;;;6.55;5.00;;;;;;;14.53;69.94;100603.84;5077238;28;20057;-64
2022/10/15 02:54:09;;;;;;;7.13;5.18;;;;;;;14.54;70.12;100607.34;5083890;28;20053;-64
2022/10/15 02:56:38;;;;;;;8.88;5.47;;;;;;;14.54;70.14;100605.47;5075482;28;20565;-64
2022/10/15 02:59:06;;;;;;;5.82;4.50;;;;;;;14.53;70.20;100603.84;5080992;28;20040;-64
2022/10/15 03:01:34;;;;;;;8.48;5.43;;;;;;;14.53;70.20;100594.91;5070136;28;20135;-65
2022/10/15 03:04:04;;;;;;;7.93;5.07;;;;;;;14.52;70.16;100595.97;5080162;28;20045;-64
2022/10/15 03:06:31;;;;;;;6.63;4.78;;;;;;;14.52;70.18;100596.78;5082321;28;20048;-64
2022/10/15 03:08:59;;;;;;;6.30;5.00;;;;;;;14.52;70.29;100599.50;5083859;28;20050;-64
2022/10/15 03:11:27;;;;;;;7.25;5.03;;;;;;;14.52;69.86;100590.56;5079029;28;20049;-64
2022/10/15 03:13:55;;;;;;;8.48;4.93;;;;;;;14.52;70.13;100587.84;5085854;28;20045;-64
2022/10/15 03:16:23;;;;;;;6.50;4.82;;;;;;;14.51;69.98;100578.94;5085264;28;20060;-64
2022/10/15 03:18:50;;;;;;;7.55;5.40;;;;;;;14.51;70.12;100586.22;5080198;28;20059;-64
2022/10/15 03:21:20;;;;;;;6.82;5.20;;;;;;;14.50;70.12;100592.69;5072009;28;20048;-64
2022/10/15 03:23:47;;;;;;;9.20;5.13;;;;;;;14.49;70.13;100593.78;5079967;28;20056;-64
2022/10/15 03:26:15;;;;;;;7.95;5.38;;;;;;;14.49;70.02;100591.88;5082328;28;20502;-64
2022/10/15 03:28:43;;;;;;;8.07;5.95;;;;;;;14.49;70.52;100596.47;5082677;28;20058;-64
2022/10/15 03:31:12;;;;;;;7.95;5.82;;;;;;;14.49;70.59;100600.00;5080566;28;20084;-64
2022/10/15 03:33:40;;;;;;;6.75;5.15;;;;;;;14.49;70.36;100597.28;5081758;28;20048;-64
2022/10/15 03:36:09;;;;;;;8.25;5.35;;;;;;;14.49;70.43;100597.28;5078729;28;20079;-64
2022/10/15 03:38:38;;;;;;;7.63;5.55;;;;;;;14.49;70.16;100591.88;5082811;28;20049;-64
2022/10/15 03:41:06;;;;;;;6.95;5.07;;;;;;;14.49;70.43;100585.66;5084808;28;20422;-64
2022/10/15 03:43:34;;;;;;;7.72;5.00;;;;;;;14.48;70.37;100581.31;5086604;28;20057;-64
2022/10/15 03:46:06;;;;;;;7.47;4.80;;;;;;;14.49;70.10;100580.25;5085850;28;20071;-63
2022/10/15 03:48:34;;;;;;;7.90;5.38;;;;;;;14.49;70.33;100582.97;5085944;28;20056;-64
2022/10/15 03:51:02;;;;;;;6.82;5.05;;;;;;;14.49;70.39;100582.97;5086011;28;20058;-64
2022/10/15 03:53:30;;;;;;;6.88;4.95;;;;;;;14.49;70.34;100574.84;5079559;28;20457;-64
2022/10/15 03:56:04;;;;;;;5.80;4.63;;;;;;;14.49;70.12;100570.25;5081191;28;20055;-64
2022/10/15 03:58:32;;;;;;;6.90;5.05;;;;;;;14.47;70.39;100575.09;5082466;28;20642;-64
2022/10/15 04:01:00;;;;;;;7.72;5.38;;;;;;;14.50;70.45;100585.41;5079405;28;20070;-64
2022/10/15 04:03:28;;;;;;;7.40;4.65;;;;;;;14.50;70.07;100585.41;5085106;28;20044;-64
2022/10/15 04:05:56;;;;;;;9.98;5.60;;;;;;;14.50;70.38;100590.00;5077189;28;20359;-64
2022/10/15 04:08:28;;;;;;;7.55;5.80;;;;;;;14.49;70.43;100591.88;5084592;28;20110;-64
2022/10/15 04:10:55;;;;;;;6.90;5.30;;;;;;;14.50;70.32;100590.00;5083620;28;20049;-64
2022/10/15 04:13:25;;;;;;;8.15;5.95;;;;;;;14.49;70.12;100582.97;5084461;28;20056;-64
2022/10/15 04:15:53;;;;;;;7.68;5.50;;;;;;;14.49;70.56;100581.06;5082761;28;20051;-64
2022/10/15 04:18:21;;;;;;;9.68;5.63;;;;;;;14.51;70.65;100583.53;5081583;28;20045;-64
2022/10/15 04:20:48;;;;;;;8.93;6.38;;;;;;;14.51;70.04;100591.63;5082998;28;20072;-64
2022/10/15 04:23:17;;;;;;;9.13;6.13;;;;;;;14.50;70.40;100587.28;5078389;28;20047;-64
2022/10/15 04:25:46;;;;;;;11.25;5.93;;;;;;;14.51;70.26;100586.22;5084630;28;20056;-64
2022/10/15 04:28:13;;;;;;;7.45;5.50;;;;;;;14.50;70.43;100590.00;5083685;28;20059;-64
2022/10/15 04:30:43;;;;;;;8.65;5.88;;;;;;;14.51;70.24;100580.81;5071137;28;20504;-64
2022/10/15 04:33:10;;;;;;;8.63;5.80;;;;;;;14.51;70.35;100588.94;5078989;28;20044;-63
2022/10/15 04:35:38;;;;;;;7.22;6.13;;;;;;;14.50;70.49;100587.28;5085451;28;20160;-64
2022/10/15 04:38:06;;;;;;;8.77;6.63;;;;;;;14.50;70.39;100584.59;5083844;28;20048;-64
2022/10/15 04:40:34;;;;;;;12.88;7.47;;;;;;;14.50;70.49;100579.19;5082526;28;20470;-64
2022/10/15 04:43:02;;;;;;;9.10;6.95;;;;;;;14.49;70.36;100582.97;5079748;28;20052;-64
2022/10/15 04:45:30;;;;;;;11.10;7.45;;;;;;;14.48;70.37;100578.63;5084683;28;20052;-64
2022/10/15 04:47:59;;;;;;;9.68;7.13;;;;;;;14.49;70.28;100588.38;5083715;28;20052;-64
2022/10/15 04:50:26;;;;;;;8.82;7.10;;;;;;;14.48;70.55;100584.03;5079275;28;20055;-64
2022/10/15 04:52:54;;;;;;;10.40;6.85;;;;;;;14.48;70.64;100582.13;5082901;28;20518;-64
2022/10/15 04:55:22;;;;;;;11.73;7.22;;;;;;;14.47;70.54;100569.69;5078866;28;20036;-64
2022/10/15 04:57:50;;;;;;;12.95;8.27;;;;;;;14.48;70.72;100565.91;5074425;28;20059;-64
2022/10/15 05:00:18;;;;;;;9.55;7.95;;;;;;;14.48;70.26;100563.22;5084405;28;20056;-64
2022/10/15 05:02:45;;;;;;;12.65;7.70;;;;;;;14.49;70.58;100567.56;5083098;28;20044;-64
2022/10/15 05:05:15;;;;;;;10.95;7.85;;;;;;;14.48;70.55;100573.22;5082346;28;20048;-64
2022/10/15 05:07:42;;;;;;;11.93;7.97;;;;;;;14.48;70.50;100565.91;5083119;28;20049;-64
2022/10/15 05:10:10;;;;;;;9.95;7.50;;;;;;;14.48;70.72;100584.84;5093422;28;20483;-64
2022/10/15 05:12:38;;;;;;;11.10;6.93;;;;;;;14.48;70.53;100589.44;5081711;28;20054;-64
2022/10/15 05:15:07;;;;;;;10.23;7.97;;;;;;;14.49;70.67;100591.06;5084348;28;20387;-64
2022/10/15 05:17:35;;;;;;;11.20;8.25;;;;;;;14.50;70.56;100592.69;5085157;28;20058;-64
2022/10/15 05:20:03;;;;;;;10.55;8.00;;;;;;;14.49;70.72;100585.66;5085619;28;20056;-64
2022/10/15 05:22:32;;;;;;;9.55;7.20;;;;;;;14.49;70.43;100591.06;5074775;28;20052;-65
2022/10/15 05:25:00;;;;;;;11.13;8.32;;;;;;;14.42;70.40;100577.75;5083216;28;20045;-64
2022/10/15 05:27:27;;;;;;;12.27;8.30;;;;;;;14.48;70.74;100584.84;5092212;28;20059;-64
2022/10/15 05:29:55;;;;;;;12.45;9.18;;;;;;;14.48;70.58;100586.72;5083626;28;20044;-64
2022/10/15 05:32:23;;;;;;;11.40;8.85;;;;;;;14.48;70.62;100584.84;5081972;28;20056;-65
2022/10/15 05:34:51;;;;;;;12.52;8.68;;;;;;;14.48;70.70;100584.03;5085283;28;20060;-64
2022/10/15 05:37:18;;;;;;;10.40;8.30;;;;;;;14.48;70.50;100581.31;5074864;28;20486;-65
2022/10/15 05:39:48;;;;;;;10.60;8.05;;;;;;;14.48;70.21;100579.44;5082641;28;20048;-64
2022/10/15 05:42:15;;;;;;;10.50;8.45;;;;;;;14.48;70.57;100586.72;5076559;28;20048;-64
2022/10/15 05:44:43;;;;;;;13.05;8.07;;;;;;;14.46;70.51;100584.28;5080207;28;20548;-64
2022/10/15 05:47:11;;;;;;;9.48;7.95;;;;;;;14.47;70.55;100591.31;5078076;28;20044;-64
2022/10/15 05:49:39;;;;;;;10.50;7.38;;;;;;;14.46;70.30;100584.28;5082816;28;20177;-64
2022/10/15 05:52:07;;;;;;;10.25;7.57;;;;;;;14.47;70.57;100582.41;5082611;28;20050;-65
2022/10/15 05:54:34;;;;;;;9.77;7.68;;;;;;;14.46;70.36;100575.34;5081570;28;20059;-64
2022/10/15 05:57:04;;;;;;;11.40;8.27;;;;;;;14.45;70.32;100558.31;5080002;28;20049;-65
2022/10/15 05:59:31;;;;;;;9.68;7.50;;;;;;;14.46;70.61;100570.75;5082096;28;20047;-64
2022/10/15 06:01:59;;;;;;;10.43;7.68;;;;;;;14.46;70.49;100570.75;5076304;28;20051;-65
2022/10/15 06:04:27;;;;;;;10.20;8.27;;;;;;;14.47;70.63;100574.28;5080342;28;20041;-64
2022/10/15 06:07:01;;;;;;;14.45;7.68;;;;;;;14.47;70.38;100579.69;5079453;28;20052;-64
2022/10/15 06:09:29;;;;;;;10.43;7.93;;;;;;;14.47;70.36;100571.56;5080282;28;20041;-65
2022/10/15 06:11:57;;;;;;;10.48;7.70;;;;;;;14.46;70.26;100575.34;5081156;28;20055;-65
2022/10/15 06:14:26;;;;;;;9.55;7.82;;;;;;;14.46;70.55;100570.75;5078920;28;20044;-65
2022/10/15 06:16:54;;;;;;;11.13;8.13;;;;;;;14.47;70.43;100574.28;5083364;28;20067;-65
2022/10/15 06:19:22;;;;;;;10.02;6.55;;;;;;;14.47;70.52;100574.28;5080029;28;20041;-65
2022/10/15 06:21:50;;;;;;;9.32;7.85;;;;;;;14.47;70.64;100575.09;5078883;28;20045;-65
2022/10/15 06:24:17;;;;;;;11.63;8.57;;;;;;;14.46;70.64;100572.66;5078726;28;20608;-65
2022/10/15 06:26:45;;;;;;;9.30;7.65;;;;;;;14.46;70.50;100573.47;5080237;28;20052;-64
2022/10/15 06:29:13;;;;;;;14.98;8.40;;;;;;;14.46;70.31;100561.84;5078870;28;20045;-65
2022/10/15 06:31:42;;;;;;;8.48;6.97;;;;;;;14.45;70.65;100577.25;5083548;28;20048;-64
2022/10/15 06:34:10;;;;;;;9.65;7.13;;;;;;;14.45;70.59;100571.84;5081993;28;20059;-65
2022/10/15 06:36:38;;;;;;;9.93;7.75;;;;;;;14.44;70.39;100582.91;5080947;28;20063;-64
2022/10/15 06:39:06;;;;;;;10.85;7.85;;;;;;;14.43;70.58;100568.56;5078555;28;20569;-64
2022/10/15 06:41:34;;;;;;;10.25;7.32;;;;;;;14.45;70.63;100579.13;5083425;28;20048;-65
2022/10/15 06:44:01;;;;;;;9.77;7.30;;;;;;;14.44;70.53;100574.78;5071289;28;20052;-63
2022/10/15 06:46:29;;;;;;;11.30;8.23;;;;;;;14.44;70.55;100582.91;5078601;28;20204;-66
2022/10/15 06:48:58;;;;;;;9.85;7.32;;;;;;;14.44;70.39;100574.78;5073679;28;20059;-66
2022/10/15 06:51:26;;;;;;;11.68;7.45;;;;;;;14.44;70.90;100572.09;5081647;28;20055;-63
2022/10/15 06:53:54;;;;;;;11.43;7.07;;;;;;;14.46;70.58;100575.34;5080404;28;20063;-63
2022/10/15 06:56:22;;;;;;;10.75;7.18;;;;;;;14.47;70.78;100569.69;5071311;28;20040;-64
2022/10/15 06:58:50;;;;;;;11.60;7.60;;;;;;;14.49;71.22;100575.66;5072193;28;20063;-62
2022/10/15 07:01:17;;;;;;;10.48;7.28;;;;;;;14.49;71.04;100567.56;5091762;28;20112;-64
2022/10/15 07:03:49;;;;;;;9.65;7.32;;;;;;;14.49;70.79;100559.44;5084130;28;20123;-64
2022/10/15 07:06:18;;;;;;;13.05;7.90;;;;;;;14.48;70.67;100563.22;5080847;28;20135;-65
2022/10/15 07:08:46;;;;;;;9.77;6.32;;;;;;;14.48;70.76;100565.91;5089757;28;20052;-64
2022/10/15 07:11:13;;;;;;;9.35;6.70;;;;;;;14.48;70.94;100567.81;5081711;28;20064;-66
2022/10/15 07:13:43;;;;;;;9.15;7.03;;;;;;;14.48;70.59;100579.44;5083358;28;20052;-66
2022/10/15 07:16:12;;;;;;;9.25;6.40;;;;;;;14.49;70.85;100585.66;5083623;28;20045;-65
2022/10/15 07:18:40;;;;;;;9.50;6.80;;;;;;;14.35;70.89;100566.28;5082214;28;20501;-65
2022/10/15 07:21:09;;;;;;;13.30;7.70;;;;;;;14.48;70.69;100586.72;5086560;28;20052;-65
2022/10/15 07:23:39;;;;;;;10.32;6.95;;;;;;;14.48;70.66;100581.31;5084467;28;20056;-65
2022/10/15 07:26:07;;;;;;;9.20;7.07;;;;;;;14.48;70.56;100565.09;5083208;28;20045;-65
2022/10/15 07:28:35;;;;;;;13.27;7.97;;;;;;;14.47;70.88;100560.75;5082121;28;20520;-63
2022/10/15 07:31:05;;;;;;;11.85;6.75;;;;;;;14.46;70.74;100554.53;5084633;28;20044;-64
2022/10/15 07:33:34;;;;;;;11.15;6.68;;;;;;;14.47;70.83;100556.16;5086210;28;20058;-66
2022/10/15 07:36:05;;;;;;;15.75;9.52;;;;;;;14.38;72.73;100538.75;5078784;28;20417;-63
2022/10/15 07:38:33;;;;;;;14.07;8.50;;;;;;;14.38;72.22;100532.53;5091153;28;20155;-63
2022/10/15 07:41:03;;;;;;;14.52;7.70;;;;;;;14.46;71.88;100543.72;5088182;28;20054;-64
2022/10/15 07:43:31;;;;;;;11.35;7.20;;;;;;;14.47;71.80;100550.75;5083988;28;20052;-63
2022/10/15 07:45:58;;;;;;;12.30;7.53;;;;;;;14.48;71.65;100544.28;5086875;28;20049;-63
2022/10/15 07:48:26;;;;;;;13.35;7.57;;;;;;;14.48;71.49;100529.94;5086965;28;20060;-64
2022/10/15 07:50:55;;;;;;;11.32;6.47;;;;;;;14.50;71.57;100525.09;5084136;28;20049;-63
2022/10/15 07:53:23;;;;;;;13.18;6.93;;;;;;;14.50;71.55;100538.63;5085605;28;20071;-63
2022/10/15 07:55:50;;;;;;;10.50;6.63;;;;;;;14.51;71.45;100535.66;5077085;28;20045;-63
2022/10/15 07:58:20;;;;;;;11.90;6.57;;;;;;;14.50;71.11;100534.03;5083605;28;20052;-63
2022/10/15 08:00:47;;;;;;;10.23;5.93;;;;;;;14.53;71.19;100535.41;5088008;28;20048;-63
2022/10/15 08:03:15;;;;;;;8.43;5.32;;;;;;;14.53;71.14;100530.00;5087536;28;20052;-63
2022/10/15 08:05:43;;;;;;;11.07;5.57;;;;;;;14.54;71.09;100528.94;5078788;28;20047;-63
2022/10/15 08:08:10;;;;;;;8.48;6.38;;;;;;;14.53;71.15;100530.81;5085683;28;20393;-62
2022/10/15 08:10:38;;;;;;;11.32;6.25;;;;;;;14.53;71.11;100522.69;5071396;28;20048;-64
2022/10/15 08:13:06;;;;;;;8.85;5.22;;;;;;;14.54;71.30;100513.50;5086561;28;20052;-64
2022/10/15 08:15:38;;;;;;;9.18;5.60;;;;;;;14.56;71.53;100524.91;5087417;28;20048;-64
2022/10/15 08:18:06;;;;;;;14.35;5.90;;;;;;;14.56;71.27;100511.38;5077845;28;20049;-63
2022/10/15 08:20:34;;;;;;;10.48;5.28;;;;;;;14.58;71.52;100514.63;5087292;28;20504;-63
2022/10/15 08:23:02;;;;;;;12.05;5.40;;;;;;;14.59;71.50;100515.47;5085682;28;20127;-63
2022/10/15 08:25:30;;;;;;;9.38;6.03;;;;;;;14.61;71.73;100524.13;5086966;28;20044;-63
2022/10/15 08:27:59;;;;;;;14.32;4.43;;;;;;;14.62;71.87;100525.75;5081664;28;20460;-63
2022/10/15 08:30:26;;;;;;;8.75;4.93;;;;;;;14.63;71.65;100530.09;5084322;28;20056;-63
2022/10/15 08:32:56;;;;;;;5.68;4.43;;;;;;;14.65;71.82;100527.94;5070033;28;20583;-63
2022/10/15 08:35:25;;;;;;;11.18;4.80;;;;;;;14.64;71.65;100516.31;5087326;28;20048;-62
2022/10/15 08:37:53;;;;;;;10.93;4.60;;;;;;;14.57;71.84;100502.19;5080488;28;20076;-63
2022/10/15 08:40:22;;;;;;;9.48;4.70;;;;;;;14.64;71.66;100513.63;5080786;28;20054;-62
2022/10/15 08:42:51;;;;;;;7.78;4.28;;;;;;;14.67;71.74;100506.88;5084760;28;20048;-62
2022/10/15 08:45:25;;;;;;;7.72;4.30;;;;;;;14.67;71.77;100508.75;5077603;28;20087;-63
2022/10/15 08:47:58;;;;;;;8.25;4.45;;;;;;;14.65;71.85;100500.91;5084649;28;20476;-63
2022/10/15 08:50:34;;;;;;;8.02;4.25;;;;;;;14.65;71.77;100499.00;5079139;28;20112;-62
2022/10/15 08:53:02;;;;;;;11.77;5.35;;;;;;;14.65;71.67;100493.59;5085257;28;20048;-62
2022/10/15 08:55:36;;;;;;;6.82;3.70;;;;;;;14.65;71.52;100493.59;5074099;28;20425;-63
2022/10/15 08:58:13;;;;;;;8.75;3.92;;;;;;;14.57;71.72;100477.03;5083275;28;20486;-64
2022/10/15 09:00:43;;;;;;;7.03;3.38;;;;;;;14.65;71.66;100484.69;5082632;28;20057;-65
2022/10/15 09:03:30;;;;;;;9.00;4.13;;;;;;;14.67;71.75;100479.81;5086143;28;20108;-65
2022/10/15 09:06:05;;;;;;;7.10;3.65;;;;;;;14.67;71.70;100477.13;5084297;28;20048;-69
2022/10/15 09:08:40;;;;;;;10.80;3.80;;;;;;;14.70;71.94;100468.50;5083233;28;20046;-67
2022/10/15 09:11:16;;;;;;;5.72;3.13;;;;;;;14.76;72.17;100472.06;5086248;28;20045;-65
2022/10/15 09:13:46;;;;;;;8.57;3.40;;;;;;;14.77;71.88;100473.69;5080626;28;20048;-66
2022/10/15 09:16:17;;;;;;;8.95;3.72;;;;;;;14.76;71.31;100475.56;5085020;28;20307;-67
2022/10/15 09:18:48;;;;;;;6.15;3.33;;;;;;;14.84;71.93;100475.09;5081624;28;20055;-66
2022/10/15 09:21:16;;;;;;;4.80;3.13;;;;;;;14.79;71.71;100472.34;5075882;28;20056;-65
2022/10/15 09:23:44;;;;;;;5.35;3.47;;;;;;;14.79;71.75;100476.94;5081771;28;20055;-66
2022/10/15 09:26:28;;;;;;;9.85;3.38;;;;;;;14.78;71.87;100470.72;5077211;28;20055;-65
2022/10/15 09:29:03;;;;;;;8.18;3.15;;;;;;;14.79;72.38;100475.06;4724590;28;10001791;-65
2022/10/15 09:31:39;;;;;;;6.07;2.70;;;;;;;14.79;72.23;100469.66;5079044;28;20070;-68
2022/10/15 09:34:16;;;;;;;9.55;3.55;;;;;;;14.80;72.36;100465.06;5075193;28;20467;-67
2022/10/15 09:36:50;;;;;;;7.65;2.83;;;;;;;14.80;72.24;100473.97;5076361;28;20048;-67
2022/10/15 09:39:35;;;;;;;6.78;3.38;;;;;;;14.82;72.44;100476.44;5062971;28;20045;-67
2022/10/15 09:42:15;;;;;;;5.50;2.55;;;;;;;14.83;72.42;100472.66;5079722;28;20127;-67
2022/10/15 09:44:45;;;;;;;6.20;2.85;;;;;;;14.86;72.79;100469.44;5080921;28;20052;-67
2022/10/15 09:47:22;;;;;;;6.95;2.50;;;;;;;14.85;72.71;100465.91;5079171;28;20055;-68
2022/10/15 09:49:51;;;;;;;5.50;2.40;;;;;;;14.84;72.39;100460.75;5077073;28;20537;-68
2022/10/15 09:52:30;;;;;;;5.78;2.80;;;;;;;14.83;72.75;100457.22;5072495;28;20049;-68
2022/10/15 09:55:07;;;;;;;4.82;2.42;;;;;;;14.85;72.84;100448.84;5071131;28;20063;-68
2022/10/15 09:57:37;;;;;;;6.60;1.88;;;;;;;14.85;72.78;100449.66;5073860;28;20052;-68
2022/10/15 10:00:13;;;;;;;4.38;2.00;;;;;;;14.85;72.89;100448.84;5075661;28;20083;-66
2022/10/15 10:02:41;;;;;;;4.15;2.47;;;;;;;14.87;72.65;100450.22;5080608;28;20088;-66
2022/10/15 10:05:27;;;;;;;5.18;2.63;;;;;;;15.01;72.59;100452.47;5079739;28;20041;-68
2022/10/15 10:08:09;;;;;;;3.20;2.03;;;;;;;14.94;72.44;100444.59;5075116;28;20127;-69
2022/10/15 10:10:38;;;;;;;3.22;1.77;;;;;;;14.93;72.52;100443.78;5082102;28;20045;-69
2022/10/15 10:13:24;;;;;;;5.68;2.10;;;;;;;14.97;73.14;100447.59;5077940;28;20055;-68
2022/10/15 10:15:54;;;;;;;10.13;2.17;;;;;;;15.11;73.04;100433.59;5075768;28;20637;-68
2022/10/15 10:18:26;;;;;;;2.75;1.92;;;;;;;15.25;73.34;100434.75;5078039;28;20072;-67
2022/10/15 10:20:58;;;;;;;5.15;1.98;;;;;;;15.45;72.11;100440.28;5081366;28;20123;-65
2022/10/15 10:23:30;;;;;;;9.57;1.80;;;;;;;15.36;72.75;100422.09;5078054;28;20748;-66
2022/10/15 10:25:59;;;;;;;3.72;1.75;;;;;;;15.25;72.55;100438.28;5075445;28;20068;-66
2022/10/15 10:28:32;;;;;;;2.97;1.70;;;;;;;15.15;72.52;100437.41;5078731;28;20112;-66
2022/10/15 10:31:04;;;;;;;6.28;2.03;;;;;;;15.21;73.90;100441.78;5074809;28;20049;-66
2022/10/15 10:33:35;;;;;;;3.25;1.42;;;;;;;15.47;73.89;100440.84;5079391;28;20048;-67
2022/10/15 10:36:07;;;;;;;3.78;1.85;;;;;;;15.26;72.60;100437.22;5077064;28;20055;-66
2022/10/15 10:38:38;;;;;;;6.75;1.40;;;;;;;15.26;72.78;100449.94;5083361;28;20066;-66
2022/10/15 10:41:08;;;;;;;7.18;1.50;;;;;;;15.18;73.12;100440.41;5073275;28;20049;-66
2022/10/15 10:43:38;;;;;;;4.15;1.85;;;;;;;15.14;73.02;100443.91;5071971;28;20132;-65
2022/10/15 10:46:18;;;;;;;6.63;1.77;;;;;;;15.12;73.20;100443.34;5076160;28;20059;-67
2022/10/15 10:48:47;;;;;;;3.38;1.52;;;;;;;15.03;73.19;100431.38;5074619;28;20295;-68
2022/10/15 10:51:19;;;;;;;3.83;1.50;;;;;;;15.40;73.52;100439.44;5072471;28;20044;-67
2022/10/15 10:53:50;;;;;;;9.40;2.45;;;;;;;15.42;72.77;100445.41;5078070;28;20112;-66
2022/10/15 10:56:23;;;;;;;5.43;1.40;;;;;;;15.46;73.15;100433.78;5080890;28;20053;-68
2022/10/15 10:58:57;;;;;;;5.30;1.70;;;;;;;15.67;73.06;100440.09;5069065;28;20135;-66
2022/10/15 11:01:25;;;;;;;7.70;1.55;;;;;;;15.81;71.93;100443.13;5078969;28;20040;-67
2022/10/15 11:03:53;;;;;;;3.22;1.65;;;;;;;15.51;72.57;100433.81;5078745;28;20102;-67
2022/10/15 11:06:38;;;;;;;4.65;2.00;;;;;;;15.43;73.12;100430.78;5087577;28;20075;-67
2022/10/15 11:09:17;;;;;;;5.22;1.65;;;;;;;15.32;73.02;100429.94;5081577;28;20058;-67
2022/10/15 11:11:53;;;;;;;3.13;1.13;;;;;;;15.28;73.25;100423.41;5082151;28;20048;-68
2022/10/15 11:14:31;;;;;;;4.95;1.25;;;;;;;15.27;73.40;100424.50;5082665;28;20048;-67
2022/10/15 11:17:07;;;;;;;4.07;1.90;;;;;;;15.59;73.23;100429.81;5071396;28;20055;-68
2022/10/15 11:19:45;;;;;;;5.20;1.30;;;;;;;15.39;72.88;100426.97;5082020;28;20057;-68
2022/10/15 11:22:49;;;;;;;5.95;1.30;;;;;;;15.30;73.34;100426.66;5073738;28;20320;-68
2022/10/15 11:25:29;;;;;;;5.72;1.45;;;;;;;15.27;73.63;100430.72;5072025;28;20049;-67
2022/10/15 11:28:10;;;;;;;4.20;1.00;;;;;;;15.20;73.54;100418.50;5077831;28;20504;-68
2022/10/15 11:30:48;;;;;;;3.13;1.25;;;;;;;15.26;73.44;100433.69;5083362;28;20049;-68
2022/10/15 11:33:44;;;;;;;2.85;1.40;;;;;;;15.27;73.63;100427.19;5071010;28;20068;-68
2022/10/15 11:36:32;;;;;;;2.80;1.30;;;;;;;15.27;73.63;100429.91;5074581;28;20045;-68
2022/10/15 11:39:17;;;;;;;1.08;0.85;;;;;;;15.20;73.55;100424.72;5076867;28;20112;-68